Details From LOWW - Wien Schwechat
To LZKZ - Kosice
Flight Number -
Tags Decoded
Created
Modified
Stats Distance 190 nm / 352 km
Max Altitude 0 ft / 0 m
Waypoints 7
Social Downloads 1
Likes 0
Share VATSIM

Download

Looking for another format? Having issues loading an existing format? Contact us
Advertisement - Login to hide

Notes

Decoded

Route

LOWW ABLOM LEDRI NIT TAKOS DEDIS LZKZ

ID Type Via Altitude Latitude Longitude Leg Dist Tot Dist Heading (true) Name
O LOWW APT - 0 ft / 0 m 48.11978˚ 16.57818˚ - 0 nm - -
ABLOM FIX - 0 ft / 0 m 48.06757˚ 17.08770˚ 20 nm 20 nm 99° / 99° -
LEDRI FIX - 0 ft / 0 m 48.09089˚ 17.18285˚ 4 nm 24 nm 70° / 70° -
NIT VOR - 0 ft / 0 m 48.29044˚ 18.05064˚ 36 nm 61 nm 71° / 71° NITRA VOR-DME
TAKOS FIX - 0 ft / 0 m 48.58250˚ 20.26667˚ 90 nm 151 nm 78° / 80° -
DEDIS FIX - 0 ft / 0 m 48.63059˚ 20.72546˚ 18 nm 169 nm 81° / 81° -
O LZKZ APT - 0 ft / 0 m 48.64945˚ 21.23641˚ 20 nm 190 nm 87° / 87° -

Altitude Profile

Advertisement - Login to hide

Weather


0- 5 10 15 20 25 30 35+ Temperature / ° C

Clouds and Precipitation
Forecast for 2018-05-27 12:00 UTC. Updated an hour ago

Ground ~20,000 ft ~40,000 ft Winds

LOWW

Details ICAO LOWW (VIE)
Name Wien Schwechat
Region Austria
Timezone Europe/Vienna (UTC+2.0)
Stats Elevation 600 ft / 183 m (AMSL)
Location 48.110068° 16.569637°
Runways 2
Magnetic Variation 4.310° E

METAR

LOWW 271220Z 12008KT 080V150 9999 FEW040 FEW040CB 26/17 Q1019 NOSIG

Decode

TAF

TAF AMD LOWW 271157Z 2712/2818 15008KT CAVOK TX28/2813Z TN16/2802Z TEMPO 2712/2717 9999 FEW050CB SCT300 TEMPO 2813/2817 15015KT 9999 FEW060CB SCT300

Decode

Departure Runways

ID Width Length Bearing (true) Bearing (mag) Surface Threshold Offset Overrun Length
11 148 ft / 45 m 11,457 ft / 3,492 m 115.99° 111.68° Asphalt 0 ft / 0 m 0 ft / 0 m
16 148 ft / 45 m 11,811 ft / 3,600 m 164.23° 159.92° Asphalt 0 ft / 0 m 33 ft / 10 m
29 148 ft / 45 m 11,457 ft / 3,492 m 296.03° 291.72° Asphalt 0 ft / 0 m 0 ft / 0 m
34 148 ft / 45 m 11,811 ft / 3,600 m 344.24° 339.93° Asphalt 0 ft / 0 m 0 ft / 0 m

LZKZ

Details ICAO LZKZ (KSC)
Name KOSICE
Region Slovakia
Timezone Europe/Bratislava (UTC+2.0)
Stats Elevation 755 ft / 230 m (AMSL)
Location 48.663030° 21.241155°
Runways 1
Magnetic Variation 5.384° E

METAR

LZKZ 271230Z VRB02KT 9999 TS SCT040 FEW045CB 27/15 Q1021 NOSIG

Decode

TAF

Not found

Destination Runways

ID Width Length Bearing (true) Bearing (mag) Surface Threshold Offset Overrun Length
01 148 ft / 45 m 10,174 ft / 3,101 m 13.00° 7.62° Asphalt 0 ft / 0 m 0 ft / 0 m
19 148 ft / 45 m 10,174 ft / 3,101 m 193.00° 187.62° Asphalt 0 ft / 0 m 0 ft / 0 m

Approach Navaids

Runway Type Ident Frequency Range Bearing (true) Bearing (mag) Slope Elevation
01 Localiser KE 109.50 MHz 18 nm / 33 km 13.00° 7.62° - 739 ft / 225 m (AMSL)
01 Glidescope KE 109.50 MHz 10 nm / 19 km 13.00° 7.62° 3.00° 739 ft / 225 m (AMSL)

Popular Alternatives